Terminal Aerodrome Forecast
Issued by NWS

Home | Current Version | Previous Version | Text Only | Print | Product List | Glossary On
Versions: 1 2 3 4 5 6 7 8 9 10 11 12 13 14 15 16
775
FTUS43 KDLH 191120
TAFBRD
TAF
KBRD 191120Z 1912/2012 21005KT P6SM FEW250
     FM192000 20013G19KT P6SM FEW250
     FM200000 19009KT P6SM FEW250=

USA.gov is the U.S. government's official web portal to all federal, state and local government web resources and services.